Time;durP1;ratioP1;P1;durP2;ratioP2;P2;SDS_P1;SDS_P2;PMS_P1;PMS_P2;Temp;Humidity;BMP_temperature;BMP_pressure;BME280_temperature;BME280_humidity;BME280_pressure;Samples;Min_cycle;Max_cycle;Signal;HPM_P1;HPM_P2
2022/09/25 00:00:19;;;;;;;;;;;19.70;47.00;;;;;;8334622;28;19917;-43
2022/09/25 00:04:20;;;;;;;;;;;19.70;47.00;;;;;;8335299;28;19917;-43
2022/09/25 00:08:20;;;;;;;;;;;19.70;47.00;;;;;;8334991;28;19913;-43
2022/09/25 00:12:21;;;;;;;;;;;19.70;46.80;;;;;;8334351;28;20027;-43
2022/09/25 00:16:22;;;;;;;;;;;19.70;46.90;;;;;;8333926;28;20294;-43
2022/09/25 00:20:23;;;;;;;;;;;19.70;47.00;;;;;;8334595;28;19940;-44
2022/09/25 00:24:23;;;;;;;;;;;19.70;47.10;;;;;;8334047;28;20008;-43
2022/09/25 00:28:24;;;;;;;;;;;19.70;46.90;;;;;;8334261;28;20335;-43
2022/09/25 00:32:24;;;;;;;;;;;19.70;47.00;;;;;;8334317;28;19932;-44
2022/09/25 00:36:25;;;;;;;;;;;19.70;46.90;;;;;;8333910;28;19965;-43
2022/09/25 00:40:26;;;;;;;;;;;19.70;47.00;;;;;;8334071;28;19921;-43
2022/09/25 00:44:45;;;;;;;;;;;19.70;47.00;;;;;;8333544;28;19949;-43
2022/09/25 00:48:50;;;;;;;;;;;19.70;47.00;;;;;;8333723;28;19955;-44
2022/09/25 00:52:53;;;;;;;;;;;19.70;46.90;;;;;;8333458;28;19928;-44
2022/09/25 00:56:55;;;;;;;;;;;19.70;46.70;;;;;;8333306;28;19960;-44
2022/09/25 01:00:55;;;;;;;;;;;19.60;46.80;;;;;;8333570;28;19917;-43
2022/09/25 01:04:58;;;;;;;;;;;19.60;46.70;;;;;;8331966;28;19920;-43
2022/09/25 01:08:59;;;;;;;;;;;19.70;46.90;;;;;;8331514;28;19917;-43
2022/09/25 01:12:59;;;;;;;;;;;19.60;46.80;;;;;;8333079;28;19971;-43
2022/09/25 01:17:03;;;;;;;;;;;19.60;46.70;;;;;;8333160;28;19925;-44
2022/09/25 01:21:08;;;;;;;;;;;19.60;46.80;;;;;;8332056;28;19923;-44
2022/09/25 01:25:23;;;;;;;;;;;19.60;46.80;;;;;;8332580;28;19917;-43
2022/09/25 01:29:36;;;;;;;;;;;19.60;46.90;;;;;;8332782;28;19917;-43
2022/09/25 01:33:42;;;;;;;;;;;19.60;46.80;;;;;;8331871;28;19929;-44
2022/09/25 01:37:45;;;;;;;;;;;19.60;46.80;;;;;;8332635;28;19921;-44
2022/09/25 01:41:49;;;;;;;;;;;19.50;46.80;;;;;;8331845;28;20404;-44
2022/09/25 01:45:52;;;;;;;;;;;19.50;46.70;;;;;;8332005;28;19917;-43
2022/09/25 01:50:00;;;;;;;;;;;19.60;46.80;;;;;;8331780;28;19918;-42
2022/09/25 01:54:04;;;;;;;;;;;19.60;46.70;;;;;;8331295;28;19925;-43
2022/09/25 01:58:09;;;;;;;;;;;19.50;46.60;;;;;;8331565;28;20358;-43
2022/09/25 02:02:14;;;;;;;;;;;19.50;46.70;;;;;;8331866;28;19920;-44
2022/09/25 02:06:18;;;;;;;;;;;19.50;46.70;;;;;;8331035;28;20398;-42
2022/09/25 02:10:21;;;;;;;;;;;19.50;46.70;;;;;;8331465;28;20370;-43
2022/09/25 02:14:44;;;;;;;;;;;19.50;46.70;;;;;;8331209;28;19976;-42
2022/09/25 02:23:22;;;;;;;;;;;19.50;46.70;;;;;;8334755;28;20286;-43
2022/09/25 02:27:26;;;;;;;;;;;19.50;46.70;;;;;;8330618;28;20436;-44
2022/09/25 02:31:29;;;;;;;;;;;19.50;46.70;;;;;;8330944;28;19917;-43
2022/09/25 02:35:31;;;;;;;;;;;19.50;46.70;;;;;;8330066;28;19939;-43
2022/09/25 02:39:32;;;;;;;;;;;19.50;46.60;;;;;;8329931;28;19964;-43
2022/09/25 02:43:49;;;;;;;;;;;19.50;46.60;;;;;;8330599;28;20279;-43
2022/09/25 02:48:07;;;;;;;;;;;19.50;46.70;;;;;;8330265;28;19920;-43
2022/09/25 02:52:10;;;;;;;;;;;19.50;46.60;;;;;;8330199;28;19917;-43
2022/09/25 02:56:12;;;;;;;;;;;19.40;46.60;;;;;;8330287;28;19922;-42
2022/09/25 03:00:13;;;;;;;;;;;19.40;46.60;;;;;;8329825;28;19921;-44
2022/09/25 03:04:16;;;;;;;;;;;19.40;46.60;;;;;;8330141;28;19963;-43
2022/09/25 03:12:36;;;;;;;;;;;19.40;46.70;;;;;;8329974;28;19932;-44
2022/09/25 03:16:45;;;;;;;;;;;19.40;46.60;;;;;;8330123;28;20271;-45
2022/09/25 03:20:46;;;;;;;;;;;19.40;46.60;;;;;;8329348;28;19976;-43
2022/09/25 03:24:46;;;;;;;;;;;19.40;46.60;;;;;;8329719;28;19924;-44
2022/09/25 03:28:47;;;;;;;;;;;19.40;46.60;;;;;;8329713;28;19913;-43
2022/09/25 03:32:47;;;;;;;;;;;19.40;46.60;;;;;;8329382;28;19921;-43
2022/09/25 03:36:48;;;;;;;;;;;19.40;46.60;;;;;;8329601;28;19922;-43
2022/09/25 03:40:48;;;;;;;;;;;19.40;46.50;;;;;;8329442;28;19919;-43
2022/09/25 03:44:48;;;;;;;;;;;19.40;46.60;;;;;;8329011;28;20393;-43
2022/09/25 03:48:51;;;;;;;;;;;19.40;46.60;;;;;;8329387;28;19913;-43
2022/09/25 03:52:51;;;;;;;;;;;19.40;46.60;;;;;;8334119;28;20019;-43
2022/09/25 03:56:51;;;;;;;;;;;19.30;46.60;;;;;;8334931;28;19924;-43
2022/09/25 04:00:55;;;;;;;;;;;19.40;46.60;;;;;;8337560;28;19917;-43
2022/09/25 04:04:56;;;;;;;;;;;19.40;46.60;;;;;;8358247;28;19913;-43
2022/09/25 04:08:56;;;;;;;;;;;19.40;46.50;;;;;;8334673;28;19918;-43
2022/09/25 04:12:57;;;;;;;;;;;19.40;46.60;;;;;;8335234;28;19926;-43
2022/09/25 04:16:57;;;;;;;;;;;19.40;46.60;;;;;;8334987;28;19923;-43
2022/09/25 04:20:58;;;;;;;;;;;19.40;46.50;;;;;;8334219;28;19924;-43
2022/09/25 04:24:59;;;;;;;;;;;19.30;46.60;;;;;;8334739;28;19913;-43
2022/09/25 04:29:02;;;;;;;;;;;19.40;46.50;;;;;;8334356;28;19924;-43
2022/09/25 04:37:25;;;;;;;;;;;19.30;46.60;;;;;;8334306;28;19971;-43
2022/09/25 04:41:25;;;;;;;;;;;19.30;46.60;;;;;;8334200;28;20267;-43
2022/09/25 04:45:26;;;;;;;;;;;19.30;46.50;;;;;;8333477;28;19917;-43
2022/09/25 04:49:26;;;;;;;;;;;19.30;46.60;;;;;;8333831;28;19917;-43
2022/09/25 04:53:28;;;;;;;;;;;19.30;46.60;;;;;;8333366;28;19925;-43
2022/09/25 04:57:29;;;;;;;;;;;19.30;46.60;;;;;;8333845;28;19917;-43
2022/09/25 05:01:29;;;;;;;;;;;19.30;46.60;;;;;;8333163;28;19918;-43
2022/09/25 05:05:31;;;;;;;;;;;19.30;46.60;;;;;;8332890;28;19921;-43
2022/09/25 05:09:31;;;;;;;;;;;19.30;46.60;;;;;;8333130;28;20162;-43
2022/09/25 05:13:32;;;;;;;;;;;19.30;46.70;;;;;;8333357;28;19929;-43
2022/09/25 05:17:32;;;;;;;;;;;19.30;46.70;;;;;;8332635;28;20374;-43
2022/09/25 05:21:33;;;;;;;;;;;19.30;46.70;;;;;;8332684;28;19964;-43
2022/09/25 05:25:33;;;;;;;;;;;19.30;46.60;;;;;;8332578;28;20515;-43
2022/09/25 05:29:34;;;;;;;;;;;19.30;46.70;;;;;;8332081;28;19913;-43
2022/09/25 05:33:34;;;;;;;;;;;19.20;46.60;;;;;;8332411;28;19921;-43
2022/09/25 05:37:34;;;;;;;;;;;19.30;46.60;;;;;;8332240;28;19952;-43
2022/09/25 05:41:35;;;;;;;;;;;19.20;46.60;;;;;;8331682;28;19913;-43
2022/09/25 05:45:35;;;;;;;;;;;19.20;46.50;;;;;;8332030;28;20351;-43
2022/09/25 05:49:36;;;;;;;;;;;19.20;46.60;;;;;;8331990;28;19925;-43
2022/09/25 05:53:37;;;;;;;;;;;19.20;46.60;;;;;;8331498;28;19935;-43
2022/09/25 05:57:37;;;;;;;;;;;19.20;46.50;;;;;;8331755;28;20372;-43
2022/09/25 06:01:38;;;;;;;;;;;19.20;46.60;;;;;;8331700;28;19913;-43
2022/09/25 06:05:39;;;;;;;;;;;19.20;46.50;;;;;;8331024;28;19971;-43
2022/09/25 06:09:39;;;;;;;;;;;19.20;46.60;;;;;;8331558;28;19945;-42
2022/09/25 06:13:45;;;;;;;;;;;19.30;46.60;;;;;;8330473;28;19932;-43
2022/09/25 06:17:45;;;;;;;;;;;19.20;46.60;;;;;;8330646;28;19917;-43
2022/09/25 06:21:46;;;;;;;;;;;19.20;46.40;;;;;;8330956;28;20409;-43
2022/09/25 06:25:46;;;;;;;;;;;19.20;46.60;;;;;;8330904;28;19913;-43
2022/09/25 06:29:47;;;;;;;;;;;19.20;46.50;;;;;;8330273;28;19924;-43
2022/09/25 06:33:49;;;;;;;;;;;19.20;46.60;;;;;;8330985;28;19932;-43
2022/09/25 06:37:49;;;;;;;;;;;19.20;46.60;;;;;;8330534;28;19921;-42
2022/09/25 06:41:51;;;;;;;;;;;19.20;46.60;;;;;;8329990;28;19925;-43
2022/09/25 06:45:52;;;;;;;;;;;19.20;46.60;;;;;;8330673;28;19917;-44
2022/09/25 06:49:52;;;;;;;;;;;19.20;46.60;;;;;;8330375;28;19924;-43
2022/09/25 06:53:53;;;;;;;;;;;19.20;46.60;;;;;;8329883;28;19971;-44
2022/09/25 06:57:53;;;;;;;;;;;19.20;46.50;;;;;;8330298;28;19940;-44
2022/09/25 07:01:54;;;;;;;;;;;19.20;46.60;;;;;;8330385;28;19919;-44
2022/09/25 07:05:54;;;;;;;;;;;19.20;46.60;;;;;;8328610;28;19925;-44
2022/09/25 07:09:54;;;;;;;;;;;19.20;46.60;;;;;;8330150;28;19945;-44
2022/09/25 07:13:55;;;;;;;;;;;19.20;46.60;;;;;;8330230;28;19932;-44
2022/09/25 07:17:55;;;;;;;;;;;19.20;46.50;;;;;;8329387;28;20003;-44
2022/09/25 07:21:56;;;;;;;;;;;19.20;46.60;;;;;;8329746;28;20011;-44
2022/09/25 07:26:02;;;;;;;;;;;19.20;46.50;;;;;;8333016;28;19912;-44
2022/09/25 07:30:03;;;;;;;;;;;19.20;46.70;;;;;;8335945;28;20004;-44
2022/09/25 07:34:11;;;;;;;;;;;19.20;46.60;;;;;;8335852;28;19932;-43
2022/09/25 07:38:11;;;;;;;;;;;19.20;46.50;;;;;;8335762;28;19925;-44
2022/09/25 07:42:12;;;;;;;;;;;19.20;46.40;;;;;;8335382;28;19963;-44
2022/09/25 07:46:13;;;;;;;;;;;19.20;46.40;;;;;;8335679;28;19923;-44
2022/09/25 07:50:13;;;;;;;;;;;19.20;46.40;;;;;;8335931;28;19914;-44
2022/09/25 07:54:13;;;;;;;;;;;19.20;46.50;;;;;;8335118;28;19933;-44
2022/09/25 07:58:14;;;;;;;;;;;19.20;46.50;;;;;;8335159;28;19917;-44
2022/09/25 08:02:14;;;;;;;;;;;19.20;46.40;;;;;;8335342;28;20286;-44
2022/09/25 08:06:15;;;;;;;;;;;19.20;46.40;;;;;;8334845;28;19968;-44
2022/09/25 08:10:15;;;;;;;;;;;19.30;46.50;;;;;;8335109;28;19967;-44
2022/09/25 08:14:17;;;;;;;;;;;19.20;46.30;;;;;;8334571;28;19925;-42
2022/09/25 08:18:17;;;;;;;;;;;19.30;46.40;;;;;;8334182;28;19917;-42
2022/09/25 08:22:17;;;;;;;;;;;19.30;46.40;;;;;;8334423;28;19921;-42
2022/09/25 08:26:22;;;;;;;;;;;19.30;46.40;;;;;;8334465;28;19923;-42
2022/09/25 08:30:23;;;;;;;;;;;19.30;46.40;;;;;;8334090;28;19921;-42
2022/09/25 08:34:24;;;;;;;;;;;19.30;46.40;;;;;;8334354;28;19932;-43
2022/09/25 08:38:25;;;;;;;;;;;19.30;46.40;;;;;;8333029;28;20453;-42
2022/09/25 08:42:29;;;;;;;;;;;19.30;46.30;;;;;;8333672;28;20289;-42
2022/09/25 08:50:54;;;;;;;;;;;19.30;46.50;;;;;;8334267;28;20416;-42
2022/09/25 08:54:54;;;;;;;;;;;19.30;46.50;;;;;;8333706;28;19922;-42
2022/09/25 08:58:55;;;;;;;;;;;19.30;46.40;;;;;;8333574;28;19948;-42
2022/09/25 09:02:57;;;;;;;;;;;19.30;46.40;;;;;;8332845;28;19924;-42
2022/09/25 09:07:06;;;;;;;;;;;19.30;46.40;;;;;;8333272;28;19978;-44
2022/09/25 09:11:11;;;;;;;;;;;19.30;46.40;;;;;;8333165;28;20383;-43
2022/09/25 09:15:33;;;;;;;;;;;19.30;46.40;;;;;;8332672;28;19921;-43
2022/09/25 09:19:33;;;;;;;;;;;19.30;46.50;;;;;;8332886;28;20337;-42
2022/09/25 09:23:51;;;;;;;;;;;19.30;46.50;;;;;;8332275;28;19917;-42
2022/09/25 09:27:51;;;;;;;;;;;19.30;46.50;;;;;;8332817;28;19940;-43
2022/09/25 09:32:01;;;;;;;;;;;19.30;46.50;;;;;;8332383;28;20016;-43
2022/09/25 09:36:13;;;;;;;;;;;19.30;46.40;;;;;;8331903;28;19979;-43
2022/09/25 09:40:19;;;;;;;;;;;19.40;46.40;;;;;;8332671;28;20289;-44
2022/09/25 09:44:38;;;;;;;;;;;19.40;46.40;;;;;;8332063;28;19917;-44
2022/09/25 09:48:44;;;;;;;;;;;19.40;46.40;;;;;;8331268;28;20015;-44
2022/09/25 09:52:47;;;;;;;;;;;19.40;46.30;;;;;;8331282;28;20014;-44
2022/09/25 09:56:48;;;;;;;;;;;19.50;46.30;;;;;;8331125;28;19944;-44
2022/09/25 10:00:50;;;;;;;;;;;19.50;46.30;;;;;;8330033;28;19913;-44
2022/09/25 10:04:51;;;;;;;;;;;19.50;46.20;;;;;;8316396;28;19918;-45
2022/09/25 10:08:52;;;;;;;;;;;19.50;46.20;;;;;;8320310;28;19917;-44
2022/09/25 10:12:53;;;;;;;;;;;19.50;46.10;;;;;;8330650;28;19932;-44
2022/09/25 10:16:54;;;;;;;;;;;19.50;46.20;;;;;;8330804;28;19914;-44
2022/09/25 10:20:58;;;;;;;;;;;19.50;46.20;;;;;;8330485;28;19917;-43
2022/09/25 10:25:02;;;;;;;;;;;19.60;46.20;;;;;;8330855;28;19925;-44
2022/09/25 10:29:04;;;;;;;;;;;19.50;46.20;;;;;;8330625;28;19932;-44
2022/09/25 10:33:13;;;;;;;;;;;19.50;46.10;;;;;;8329977;28;20019;-44
2022/09/25 10:37:19;;;;;;;;;;;19.60;46.20;;;;;;8330442;28;19921;-44
2022/09/25 10:41:20;;;;;;;;;;;19.60;46.20;;;;;;8330390;28;19967;-44
2022/09/25 10:45:33;;;;;;;;;;;19.50;46.20;;;;;;8329812;28;20051;-43
2022/09/25 10:54:10;;;;;;;;;;;19.60;46.30;;;;;;8329571;28;19932;-43
2022/09/25 10:58:11;;;;;;;;;;;19.50;46.30;;;;;;8329889;28;19921;-43
2022/09/25 11:02:15;;;;;;;;;;;19.50;46.30;;;;;;8339530;28;19928;-43
2022/09/25 11:06:19;;;;;;;;;;;19.50;46.30;;;;;;8340673;28;19913;-45
2022/09/25 11:10:21;;;;;;;;;;;19.50;46.30;;;;;;8340800;28;19955;-44
2022/09/25 11:14:32;;;;;;;;;;;19.50;46.30;;;;;;8340721;28;19929;-43
2022/09/25 11:18:32;;;;;;;;;;;19.60;46.30;;;;;;8340389;28;19921;-43
2022/09/25 11:22:36;;;;;;;;;;;19.50;46.30;;;;;;8340737;28;19917;-43
2022/09/25 11:26:39;;;;;;;;;;;19.50;46.30;;;;;;8340306;28;20014;-43
2022/09/25 11:30:50;;;;;;;;;;;19.60;46.30;;;;;;8340784;28;19925;-44
2022/09/25 11:34:56;;;;;;;;;;;19.60;46.30;;;;;;8340286;28;19932;-43
2022/09/25 11:43:50;;;;;;;;;;;19.60;46.30;;;;;;8340547;28;19927;-43
2022/09/25 11:48:04;;;;;;;;;;;19.60;46.20;;;;;;8339758;28;19924;-43
2022/09/25 11:52:15;;;;;;;;;;;19.70;46.20;;;;;;8339697;28;21297;-43
2022/09/25 11:56:39;;;;;;;;;;;19.70;46.20;;;;;;8340470;28;19932;-43
2022/09/25 12:00:40;;;;;;;;;;;19.70;46.10;;;;;;8300491;28;19918;-43
2022/09/25 12:04:49;;;;;;;;;;;19.70;46.20;;;;;;8330093;28;19921;-43
2022/09/25 12:08:56;;;;;;;;;;;19.70;46.20;;;;;;8339518;28;19917;-42
2022/09/25 12:13:10;;;;;;;;;;;19.70;46.20;;;;;;8335016;28;20369;-43
2022/09/25 12:17:17;;;;;;;;;;;19.70;46.20;;;;;;8334903;28;19924;-43
2022/09/25 12:21:22;;;;;;;;;;;19.70;46.20;;;;;;8334288;28;19921;-42
2022/09/25 12:25:42;;;;;;;;;;;19.70;46.20;;;;;;8334469;28;20247;-42
2022/09/25 12:30:06;;;;;;;;;;;19.70;46.10;;;;;;8334095;28;19913;-42
2022/09/25 12:34:07;;;;;;;;;;;19.70;46.10;;;;;;8334173;28;20024;-42
2022/09/25 12:38:12;;;;;;;;;;;19.70;46.20;;;;;;8334137;28;20263;-42
2022/09/25 12:42:31;;;;;;;;;;;19.70;46.70;;;;;;8333095;28;19939;-42
2022/09/25 12:46:43;;;;;;;;;;;19.70;46.10;;;;;;8334392;28;19974;-42
2022/09/25 12:50:49;;;;;;;;;;;19.80;46.10;;;;;;8333470;28;19917;-43
2022/09/25 12:55:01;;;;;;;;;;;19.80;46.10;;;;;;8333502;28;20306;-43
2022/09/25 12:59:20;;;;;;;;;;;19.80;46.00;;;;;;8333814;28;19940;-42
2022/09/25 13:03:26;;;;;;;;;;;19.80;46.10;;;;;;8332926;28;19924;-42
2022/09/25 13:07:41;;;;;;;;;;;19.80;46.20;;;;;;8322656;28;20397;-42
2022/09/25 13:11:51;;;;;;;;;;;19.80;46.10;;;;;;8332989;28;19913;-42
2022/09/25 13:15:56;;;;;;;;;;;19.80;46.10;;;;;;8333138;28;19956;-42
2022/09/25 13:20:15;;;;;;;;;;;19.80;46.20;;;;;;8332789;28;19928;-42
2022/09/25 13:24:16;;;;;;;;;;;19.80;46.10;;;;;;8331948;28;19971;-41
2022/09/25 13:28:19;;;;;;;;;;;19.80;46.20;;;;;;8332562;28;19917;-42
2022/09/25 13:32:22;;;;;;;;;;;19.80;46.10;;;;;;8332695;28;20274;-42
2022/09/25 13:36:23;;;;;;;;;;;19.90;46.20;;;;;;8331801;28;19929;-41
2022/09/25 13:40:44;;;;;;;;;;;19.80;46.10;;;;;;8332252;28;19917;-42
2022/09/25 13:44:49;;;;;;;;;;;19.90;46.20;;;;;;8331695;28;19913;-42
2022/09/25 13:48:54;;;;;;;;;;;19.90;46.20;;;;;;8332200;28;19913;-42
2022/09/25 13:53:16;;;;;;;;;;;19.90;46.20;;;;;;8331666;28;19927;-42
2022/09/25 13:57:16;;;;;;;;;;;19.90;46.10;;;;;;8331494;28;20404;-43
2022/09/25 14:01:32;;;;;;;;;;;19.90;46.20;;;;;;8331486;28;19925;-43
2022/09/25 14:05:36;;;;;;;;;;;19.90;46.10;;;;;;8331074;28;20397;-44
2022/09/25 14:09:39;;;;;;;;;;;19.90;46.20;;;;;;8331360;28;19925;-42
2022/09/25 14:13:44;;;;;;;;;;;19.90;46.10;;;;;;8331171;28;19921;-42
2022/09/25 14:17:45;;;;;;;;;;;19.90;46.10;;;;;;8331121;28;19975;-43
2022/09/25 14:21:46;;;;;;;;;;;19.90;46.10;;;;;;8331278;28;20052;-43
2022/09/25 14:25:55;;;;;;;;;;;19.90;46.10;;;;;;8331015;28;19917;-43
2022/09/25 14:30:03;;;;;;;;;;;19.90;46.10;;;;;;8329278;28;19924;-43
2022/09/25 14:34:24;;;;;;;;;;;19.90;46.20;;;;;;8330250;28;19943;-43
2022/09/25 14:38:35;;;;;;;;;;;19.90;46.20;;;;;;8330615;28;19971;-42
2022/09/25 14:42:39;;;;;;;;;;;19.90;46.20;;;;;;8330941;28;20302;-43
2022/09/25 14:46:40;;;;;;;;;;;19.90;46.10;;;;;;8330321;28;19925;-43
2022/09/25 14:50:46;;;;;;;;;;;19.90;46.20;;;;;;8328757;28;19917;-43
2022/09/25 14:54:47;;;;;;;;;;;19.90;46.20;;;;;;8330432;28;19925;-43
2022/09/25 14:58:50;;;;;;;;;;;20.00;46.20;;;;;;8330168;28;20370;-43
2022/09/25 15:02:53;;;;;;;;;;;20.00;46.30;;;;;;8329640;28;20001;-43
2022/09/25 15:07:16;;;;;;;;;;;19.90;46.20;;;;;;8330197;28;19918;-44
2022/09/25 15:11:18;;;;;;;;;;;19.90;46.20;;;;;;8322000;28;20012;-43
2022/09/25 15:15:20;;;;;;;;;;;19.90;46.20;;;;;;8329290;28;20356;-44
2022/09/25 15:19:24;;;;;;;;;;;19.90;46.20;;;;;;8330097;28;19917;-42
2022/09/25 15:23:24;;;;;;;;;;;19.90;46.30;;;;;;8329813;28;19913;-43
2022/09/25 15:27:27;;;;;;;;;;;19.90;46.30;;;;;;8329483;28;19964;-43
2022/09/25 15:31:35;;;;;;;;;;;19.90;46.30;;;;;;8329832;28;19964;-43
2022/09/25 15:35:35;;;;;;;;;;;19.90;46.30;;;;;;8329201;28;20036;-43
2022/09/25 15:39:39;;;;;;;;;;;19.90;46.30;;;;;;8329464;28;19917;-43
2022/09/25 15:43:39;;;;;;;;;;;19.90;46.30;;;;;;8329482;28;19960;-44
2022/09/25 15:47:47;;;;;;;;;;;19.90;46.30;;;;;;8333461;28;20366;-43
2022/09/25 15:51:54;;;;;;;;;;;19.90;46.40;;;;;;8335612;28;19920;-43
2022/09/25 15:56:15;;;;;;;;;;;19.90;46.40;;;;;;8335348;28;19932;-43
2022/09/25 16:04:45;;;;;;;;;;;19.90;46.40;;;;;;8339182;28;19971;-43
2022/09/25 16:08:46;;;;;;;;;;;19.90;46.40;;;;;;8334682;28;19913;-43
2022/09/25 16:12:48;;;;;;;;;;;19.90;46.40;;;;;;8335583;28;19913;-44
2022/09/25 16:16:49;;;;;;;;;;;19.90;46.40;;;;;;8335059;28;19917;-44
2022/09/25 16:20:56;;;;;;;;;;;19.90;46.50;;;;;;8334321;28;20273;-44
2022/09/25 16:24:56;;;;;;;;;;;19.90;46.50;;;;;;8334952;28;19928;-44
2022/09/25 16:29:03;;;;;;;;;;;19.80;46.40;;;;;;8334641;28;19917;-44
2022/09/25 16:33:07;;;;;;;;;;;19.80;46.40;;;;;;8334037;28;19947;-45
2022/09/25 16:37:20;;;;;;;;;;;19.80;46.40;;;;;;8334339;28;19921;-43
2022/09/25 16:41:21;;;;;;;;;;;19.80;46.40;;;;;;8334325;28;19917;-43
2022/09/25 16:45:24;;;;;;;;;;;19.80;46.40;;;;;;8333557;28;19924;-44
2022/09/25 16:49:25;;;;;;;;;;;19.80;46.50;;;;;;8334264;28;20289;-43
2022/09/25 16:53:26;;;;;;;;;;;19.90;46.50;;;;;;8333865;28;19933;-42
2022/09/25 16:57:26;;;;;;;;;;;19.80;46.50;;;;;;8332429;28;19924;-42
2022/09/25 17:01:27;;;;;;;;;;;19.80;46.50;;;;;;8333754;28;19917;-42
2022/09/25 17:05:28;;;;;;;;;;;19.80;46.50;;;;;;8332936;28;19913;-42
2022/09/25 17:09:30;;;;;;;;;;;19.80;46.50;;;;;;8333133;28;19913;-42
2022/09/25 17:13:30;;;;;;;;;;;19.80;46.50;;;;;;8333144;28;20008;-42
2022/09/25 17:17:31;;;;;;;;;;;19.80;46.60;;;;;;8332647;28;19917;-43
2022/09/25 17:21:32;;;;;;;;;;;19.80;46.60;;;;;;8332823;28;19932;-42
2022/09/25 17:25:46;;;;;;;;;;;19.80;46.60;;;;;;8332856;28;19917;-42
2022/09/25 17:29:46;;;;;;;;;;;19.80;46.60;;;;;;8332316;28;19935;-42
2022/09/25 17:33:50;;;;;;;;;;;19.80;46.50;;;;;;8332963;28;19960;-43
2022/09/25 17:37:51;;;;;;;;;;;19.80;46.50;;;;;;8332298;28;19921;-42
2022/09/25 17:41:52;;;;;;;;;;;19.80;47.10;;;;;;8331866;28;19936;-42
2022/09/25 17:45:54;;;;;;;;;;;19.80;46.50;;;;;;8332144;28;19921;-42
2022/09/25 17:49:56;;;;;;;;;;;19.80;46.60;;;;;;8331958;28;19914;-42
2022/09/25 17:53:58;;;;;;;;;;;19.80;46.50;;;;;;8331666;28;20313;-42
2022/09/25 17:57:58;;;;;;;;;;;19.80;46.60;;;;;;8331735;28;20008;-42
2022/09/25 18:01:59;;;;;;;;;;;19.70;46.50;;;;;;8331785;28;19987;-42
2022/09/25 18:05:59;;;;;;;;;;;19.80;46.50;;;;;;8331015;28;19924;-42
2022/09/25 18:10:00;;;;;;;;;;;19.80;46.60;;;;;;8330422;28;19936;-43
2022/09/25 18:14:01;;;;;;;;;;;19.70;46.50;;;;;;8331692;28;19925;-42
2022/09/25 18:18:02;;;;;;;;;;;19.80;46.50;;;;;;8330814;28;19999;-42
2022/09/25 18:22:18;;;;;;;;;;;19.70;46.50;;;;;;8331232;28;19925;-42
2022/09/25 18:26:18;;;;;;;;;;;19.80;46.60;;;;;;8331138;28;19917;-42
2022/09/25 18:30:21;;;;;;;;;;;19.70;46.70;;;;;;8330308;28;19924;-42
2022/09/25 18:34:24;;;;;;;;;;;19.70;46.60;;;;;;8331099;28;20448;-43
2022/09/25 18:38:25;;;;;;;;;;;19.70;46.70;;;;;;8330528;28;19921;-42
2022/09/25 18:42:25;;;;;;;;;;;19.70;46.70;;;;;;8330038;28;19916;-42
2022/09/25 18:46:26;;;;;;;;;;;19.70;46.70;;;;;;8330503;28;19927;-43
2022/09/25 18:50:27;;;;;;;;;;;19.70;46.70;;;;;;8330310;28;19924;-43
2022/09/25 18:54:28;;;;;;;;;;;19.70;46.70;;;;;;8330475;28;20407;-44
2022/09/25 18:58:29;;;;;;;;;;;19.70;46.70;;;;;;8330487;28;19918;-43
2022/09/25 19:02:29;;;;;;;;;;;19.70;46.70;;;;;;8329793;28;19925;-43
2022/09/25 19:06:30;;;;;;;;;;;19.70;46.70;;;;;;8329522;28;19926;-43
2022/09/25 19:10:33;;;;;;;;;;;19.70;46.80;;;;;;8330032;28;19917;-43
2022/09/25 19:14:34;;;;;;;;;;;19.70;46.70;;;;;;8329802;28;19925;-44
2022/09/25 19:18:35;;;;;;;;;;;19.70;46.70;;;;;;8330188;28;19917;-43
2022/09/25 19:22:35;;;;;;;;;;;19.70;46.70;;;;;;8334255;28;19928;-43
2022/09/25 19:26:36;;;;;;;;;;;19.70;46.70;;;;;;8336019;28;19979;-43
2022/09/25 19:30:37;;;;;;;;;;;19.70;46.80;;;;;;8336552;28;19947;-43
2022/09/25 19:34:37;;;;;;;;;;;19.70;46.70;;;;;;8336298;28;19968;-43
2022/09/25 19:38:39;;;;;;;;;;;19.70;46.60;;;;;;8335611;28;19921;-44
2022/09/25 19:42:39;;;;;;;;;;;19.70;46.70;;;;;;8335940;28;20332;-44
2022/09/25 19:46:40;;;;;;;;;;;19.70;46.80;;;;;;8335883;28;19917;-44
2022/09/25 19:50:41;;;;;;;;;;;19.70;46.70;;;;;;8335486;28;19933;-42
2022/09/25 19:54:41;;;;;;;;;;;19.70;46.80;;;;;;8335991;28;20377;-43
2022/09/25 19:58:42;;;;;;;;;;;19.70;46.80;;;;;;8335445;28;19917;-43
2022/09/25 20:02:43;;;;;;;;;;;19.70;46.70;;;;;;8334984;28;19913;-44
2022/09/25 20:06:44;;;;;;;;;;;19.70;46.70;;;;;;8335578;28;20381;-43
2022/09/25 20:10:45;;;;;;;;;;;19.70;46.70;;;;;;8335325;28;19948;-44
2022/09/25 20:14:46;;;;;;;;;;;19.70;46.70;;;;;;8334616;28;19932;-44
2022/09/25 20:18:48;;;;;;;;;;;19.60;46.70;;;;;;8335268;28;19924;-43
2022/09/25 20:22:48;;;;;;;;;;;19.70;46.80;;;;;;8334907;28;20349;-44
2022/09/25 20:26:48;;;;;;;;;;;19.60;46.70;;;;;;8334359;28;19917;-45
2022/09/25 20:30:49;;;;;;;;;;;19.60;46.70;;;;;;8334775;28;19941;-45
2022/09/25 20:34:50;;;;;;;;;;;19.60;46.70;;;;;;8333486;28;20302;-43
2022/09/25 20:38:51;;;;;;;;;;;19.60;46.80;;;;;;8333842;28;19925;-45
2022/09/25 20:42:52;;;;;;;;;;;19.60;46.70;;;;;;8334225;28;20298;-43
2022/09/25 20:46:52;;;;;;;;;;;19.60;46.70;;;;;;8334428;28;20086;-43
2022/09/25 20:50:53;;;;;;;;;;;19.60;46.70;;;;;;8333943;28;19924;-43
2022/09/25 20:54:55;;;;;;;;;;;19.60;46.80;;;;;;8333791;28;19925;-43
2022/09/25 20:58:56;;;;;;;;;;;19.70;46.80;;;;;;8333739;28;20290;-43
2022/09/25 21:02:58;;;;;;;;;;;19.60;46.80;;;;;;8332964;28;20214;-43
2022/09/25 21:07:00;;;;;;;;;;;19.60;46.70;;;;;;8333309;28;19980;-44
2022/09/25 21:11:01;;;;;;;;;;;19.60;46.70;;;;;;8333261;28;19940;-43
2022/09/25 21:15:01;;;;;;;;;;;19.60;46.70;;;;;;8332838;28;19921;-43
2022/09/25 21:19:03;;;;;;;;;;;19.60;46.80;;;;;;8332884;28;20489;-43
2022/09/25 21:23:03;;;;;;;;;;;19.60;46.70;;;;;;8333020;28;19921;-44
2022/09/25 21:27:03;;;;;;;;;;;19.60;46.70;;;;;;8332294;28;20449;-43
2022/09/25 21:31:05;;;;;;;;;;;19.60;46.70;;;;;;8332619;28;19963;-45
2022/09/25 21:35:06;;;;;;;;;;;19.60;46.70;;;;;;8332696;28;19936;-43
2022/09/25 21:39:06;;;;;;;;;;;19.50;46.80;;;;;;8331854;28;20420;-44
2022/09/25 21:43:07;;;;;;;;;;;19.60;46.80;;;;;;8331996;28;19924;-43
2022/09/25 21:47:07;;;;;;;;;;;19.50;46.70;;;;;;8332139;28;19972;-44
2022/09/25 21:51:08;;;;;;;;;;;19.60;46.80;;;;;;8331544;28;19995;-44
2022/09/25 21:55:08;;;;;;;;;;;19.60;46.70;;;;;;8332199;28;20302;-44
2022/09/25 21:59:09;;;;;;;;;;;19.60;46.80;;;;;;8331889;28;20397;-44
2022/09/25 22:03:09;;;;;;;;;;;19.60;46.70;;;;;;8329513;28;19917;-44
2022/09/25 22:07:10;;;;;;;;;;;19.60;46.70;;;;;;8331578;28;20393;-44
2022/09/25 22:11:10;;;;;;;;;;;19.60;46.70;;;;;;8331652;28;19992;-44
2022/09/25 22:15:11;;;;;;;;;;;19.60;46.70;;;;;;8331170;28;19921;-44
2022/09/25 22:19:16;;;;;;;;;;;19.50;46.70;;;;;;8331585;28;19933;-44
2022/09/25 22:23:17;;;;;;;;;;;19.60;46.70;;;;;;8331294;28;19952;-43
2022/09/25 22:27:17;;;;;;;;;;;19.60;46.80;;;;;;8330459;28;19924;-44
2022/09/25 22:31:19;;;;;;;;;;;19.50;46.70;;;;;;8331052;28;19917;-44
2022/09/25 22:35:19;;;;;;;;;;;19.50;46.70;;;;;;8330928;28;20259;-44
2022/09/25 22:39:20;;;;;;;;;;;19.50;46.80;;;;;;8330415;28;19952;-43
2022/09/25 22:43:20;;;;;;;;;;;19.60;46.80;;;;;;8330481;28;19925;-44
2022/09/25 22:47:21;;;;;;;;;;;19.50;46.80;;;;;;8330409;28;19921;-44
2022/09/25 22:51:22;;;;;;;;;;;19.50;46.80;;;;;;8330033;28;19920;-45
2022/09/25 22:55:23;;;;;;;;;;;19.60;46.80;;;;;;8329822;28;19921;-44
2022/09/25 22:59:24;;;;;;;;;;;19.50;46.80;;;;;;8330264;28;19921;-44
2022/09/25 23:03:24;;;;;;;;;;;19.50;46.70;;;;;;8329729;28;20003;-44
2022/09/25 23:07:25;;;;;;;;;;;19.50;46.80;;;;;;8330132;28;20398;-43
2022/09/25 23:11:25;;;;;;;;;;;19.50;46.90;;;;;;8330131;28;19936;-44
2022/09/25 23:15:26;;;;;;;;;;;19.50;46.80;;;;;;8329776;28;19976;-44
2022/09/25 23:19:26;;;;;;;;;;;19.50;46.80;;;;;;8330375;28;19917;-44
2022/09/25 23:23:27;;;;;;;;;;;19.50;46.80;;;;;;8329854;28;19917;-43
2022/09/25 23:27:27;;;;;;;;;;;19.50;46.80;;;;;;8328292;28;20019;-43
2022/09/25 23:31:29;;;;;;;;;;;19.50;46.80;;;;;;8330458;28;19917;-45
2022/09/25 23:35:33;;;;;;;;;;;19.50;46.90;;;;;;8329694;28;19925;-43
2022/09/25 23:39:33;;;;;;;;;;;19.50;46.80;;;;;;8329690;28;19921;-43
2022/09/25 23:43:34;;;;;;;;;;;19.50;46.80;;;;;;8329603;28;20007;-43
2022/09/25 23:47:34;;;;;;;;;;;19.50;46.80;;;;;;8329136;28;19940;-44
2022/09/25 23:51:35;;;;;;;;;;;19.50;46.90;;;;;;8329681;28;19917;-43
2022/09/25 23:55:41;;;;;;;;;;;19.50;46.80;;;;;;8329574;28;19925;-44
2022/09/25 23:59:41;;;;;;;;;;;19.50;46.90;;;;;;8328985;28;19999;-44
